sensor_id;sensor_type;location;lat;lon;timestamp;P1;durP1;ratioP1;P2;durP2;ratioP2
82526;SDS011;72188;41.974;21.456;2023-12-20T00:01:10;273.77;;;138.93;;
82526;SDS011;72188;41.974;21.456;2023-12-20T00:03:36;262.42;;;136.60;;
82526;SDS011;72188;41.974;21.456;2023-12-20T00:06:02;269.83;;;130.82;;
82526;SDS011;72188;41.974;21.456;2023-12-20T00:08:28;250.23;;;125.80;;
82526;SDS011;72188;41.974;21.456;2023-12-20T00:10:54;253.75;;;126.82;;
82526;SDS011;72188;41.974;21.456;2023-12-20T00:13:20;226.10;;;115.43;;
82526;SDS011;72188;41.974;21.456;2023-12-20T00:15:46;280.73;;;135.93;;
82526;SDS011;72188;41.974;21.456;2023-12-20T00:18:12;269.50;;;134.20;;
82526;SDS011;72188;41.974;21.456;2023-12-20T00:20:39;246.25;;;124.57;;
82526;SDS011;72188;41.974;21.456;2023-12-20T00:23:05;232.55;;;122.93;;
82526;SDS011;72188;41.974;21.456;2023-12-20T00:25:31;223.32;;;112.28;;
82526;SDS011;72188;41.974;21.456;2023-12-20T00:27:57;219.98;;;114.57;;
82526;SDS011;72188;41.974;21.456;2023-12-20T00:30:23;223.60;;;107.22;;
82526;SDS011;72188;41.974;21.456;2023-12-20T00:32:49;210.23;;;101.68;;
82526;SDS011;72188;41.974;21.456;2023-12-20T00:35:15;200.60;;;100.53;;
82526;SDS011;72188;41.974;21.456;2023-12-20T00:37:44;214.18;;;107.50;;
82526;SDS011;72188;41.974;21.456;2023-12-20T00:40:10;191.75;;;94.10;;
82526;SDS011;72188;41.974;21.456;2023-12-20T00:42:37;192.70;;;92.50;;
82526;SDS011;72188;41.974;21.456;2023-12-20T00:45:03;161.18;;;80.50;;
82526;SDS011;72188;41.974;21.456;2023-12-20T00:47:30;173.88;;;87.45;;
82526;SDS011;72188;41.974;21.456;2023-12-20T00:49:56;186.25;;;95.97;;
82526;SDS011;72188;41.974;21.456;2023-12-20T00:52:22;171.20;;;88.30;;
82526;SDS011;72188;41.974;21.456;2023-12-20T00:54:49;185.70;;;93.03;;
82526;SDS011;72188;41.974;21.456;2023-12-20T00:57:15;188.10;;;94.30;;
82526;SDS011;72188;41.974;21.456;2023-12-20T00:59:41;193.68;;;93.85;;
82526;SDS011;72188;41.974;21.456;2023-12-20T01:02:07;196.77;;;95.88;;
82526;SDS011;72188;41.974;21.456;2023-12-20T01:04:34;183.10;;;94.93;;
82526;SDS011;72188;41.974;21.456;2023-12-20T01:07:00;202.85;;;98.00;;
82526;SDS011;72188;41.974;21.456;2023-12-20T01:09:26;191.90;;;95.20;;
82526;SDS011;72188;41.974;21.456;2023-12-20T01:11:52;187.02;;;94.32;;
82526;SDS011;72188;41.974;21.456;2023-12-20T01:14:19;183.65;;;94.75;;
82526;SDS011;72188;41.974;21.456;2023-12-20T01:16:45;177.30;;;91.70;;
82526;SDS011;72188;41.974;21.456;2023-12-20T01:19:11;177.48;;;94.50;;
82526;SDS011;72188;41.974;21.456;2023-12-20T01:21:38;205.35;;;99.60;;
82526;SDS011;72188;41.974;21.456;2023-12-20T01:24:04;194.90;;;97.60;;
82526;SDS011;72188;41.974;21.456;2023-12-20T01:26:30;183.32;;;90.80;;
82526;SDS011;72188;41.974;21.456;2023-12-20T01:28:56;184.38;;;89.38;;
82526;SDS011;72188;41.974;21.456;2023-12-20T01:31:22;176.32;;;91.68;;
82526;SDS011;72188;41.974;21.456;2023-12-20T01:33:48;169.90;;;88.35;;
82526;SDS011;72188;41.974;21.456;2023-12-20T01:36:15;191.90;;;95.40;;
82526;SDS011;72188;41.974;21.456;2023-12-20T01:38:41;168.98;;;88.78;;
82526;SDS011;72188;41.974;21.456;2023-12-20T01:41:07;173.50;;;87.05;;
82526;SDS011;72188;41.974;21.456;2023-12-20T01:43:33;182.27;;;94.60;;
82526;SDS011;72188;41.974;21.456;2023-12-20T01:45:59;187.05;;;92.78;;
82526;SDS011;72188;41.974;21.456;2023-12-20T01:48:25;204.35;;;99.75;;
82526;SDS011;72188;41.974;21.456;2023-12-20T01:50:53;192.15;;;94.50;;
82526;SDS011;72188;41.974;21.456;2023-12-20T01:53:20;201.20;;;103.55;;
82526;SDS011;72188;41.974;21.456;2023-12-20T01:55:47;187.85;;;95.28;;
82526;SDS011;72188;41.974;21.456;2023-12-20T01:58:13;200.55;;;96.53;;
82526;SDS011;72188;41.974;21.456;2023-12-20T02:00:40;205.38;;;101.25;;
82526;SDS011;72188;41.974;21.456;2023-12-20T02:03:06;194.18;;;91.60;;
82526;SDS011;72188;41.974;21.456;2023-12-20T02:05:33;200.77;;;100.88;;
82526;SDS011;72188;41.974;21.456;2023-12-20T02:07:59;195.18;;;99.70;;
82526;SDS011;72188;41.974;21.456;2023-12-20T02:10:25;197.18;;;97.72;;
82526;SDS011;72188;41.974;21.456;2023-12-20T02:12:52;187.35;;;90.20;;
82526;SDS011;72188;41.974;21.456;2023-12-20T02:15:18;185.93;;;95.35;;
82526;SDS011;72188;41.974;21.456;2023-12-20T02:17:45;186.48;;;93.65;;
82526;SDS011;72188;41.974;21.456;2023-12-20T02:20:11;191.95;;;94.60;;
82526;SDS011;72188;41.974;21.456;2023-12-20T02:22:37;198.88;;;95.43;;
82526;SDS011;72188;41.974;21.456;2023-12-20T02:25:03;192.63;;;98.18;;
82526;SDS011;72188;41.974;21.456;2023-12-20T02:27:29;201.48;;;96.53;;
82526;SDS011;72188;41.974;21.456;2023-12-20T02:29:55;181.43;;;95.20;;
82526;SDS011;72188;41.974;21.456;2023-12-20T02:32:22;181.25;;;90.30;;
82526;SDS011;72188;41.974;21.456;2023-12-20T02:34:51;173.52;;;86.93;;
82526;SDS011;72188;41.974;21.456;2023-12-20T02:37:17;203.57;;;97.65;;
82526;SDS011;72188;41.974;21.456;2023-12-20T02:39:43;194.80;;;97.97;;
82526;SDS011;72188;41.974;21.456;2023-12-20T02:42:09;179.35;;;93.30;;
82526;SDS011;72188;41.974;21.456;2023-12-20T02:44:35;192.05;;;93.32;;
82526;SDS011;72188;41.974;21.456;2023-12-20T02:47:01;195.25;;;97.53;;
82526;SDS011;72188;41.974;21.456;2023-12-20T02:49:27;188.43;;;93.55;;
82526;SDS011;72188;41.974;21.456;2023-12-20T02:51:54;208.23;;;103.50;;
82526;SDS011;72188;41.974;21.456;2023-12-20T02:54:20;203.68;;;97.75;;
82526;SDS011;72188;41.974;21.456;2023-12-20T02:56:46;200.90;;;95.07;;
82526;SDS011;72188;41.974;21.456;2023-12-20T02:59:12;217.93;;;102.45;;
82526;SDS011;72188;41.974;21.456;2023-12-20T03:01:42;200.50;;;98.65;;
82526;SDS011;72188;41.974;21.456;2023-12-20T03:04:08;183.85;;;88.05;;
82526;SDS011;72188;41.974;21.456;2023-12-20T03:06:34;167.80;;;85.93;;
82526;SDS011;72188;41.974;21.456;2023-12-20T03:09:00;180.88;;;86.57;;
82526;SDS011;72188;41.974;21.456;2023-12-20T03:11:27;186.85;;;91.80;;
82526;SDS011;72188;41.974;21.456;2023-12-20T03:13:53;184.85;;;88.25;;
82526;SDS011;72188;41.974;21.456;2023-12-20T03:16:19;178.07;;;85.30;;
82526;SDS011;72188;41.974;21.456;2023-12-20T03:18:45;169.38;;;85.43;;
82526;SDS011;72188;41.974;21.456;2023-12-20T03:21:11;151.57;;;74.43;;
82526;SDS011;72188;41.974;21.456;2023-12-20T03:23:38;140.02;;;69.53;;
82526;SDS011;72188;41.974;21.456;2023-12-20T03:26:06;185.80;;;77.65;;
82526;SDS011;72188;41.974;21.456;2023-12-20T03:28:32;198.13;;;87.25;;
82526;SDS011;72188;41.974;21.456;2023-12-20T03:30:59;179.05;;;82.75;;
82526;SDS011;72188;41.974;21.456;2023-12-20T03:33:25;201.75;;;83.60;;
82526;SDS011;72188;41.974;21.456;2023-12-20T03:35:51;225.25;;;88.72;;
82526;SDS011;72188;41.974;21.456;2023-12-20T03:38:17;173.95;;;79.93;;
82526;SDS011;72188;41.974;21.456;2023-12-20T03:40:43;170.68;;;80.55;;
82526;SDS011;72188;41.974;21.456;2023-12-20T03:43:09;179.57;;;83.28;;
82526;SDS011;72188;41.974;21.456;2023-12-20T03:45:35;156.57;;;77.93;;
82526;SDS011;72188;41.974;21.456;2023-12-20T03:48:01;173.45;;;74.65;;
82526;SDS011;72188;41.974;21.456;2023-12-20T03:50:27;188.50;;;80.55;;
82526;SDS011;72188;41.974;21.456;2023-12-20T03:52:53;193.93;;;84.90;;
82526;SDS011;72188;41.974;21.456;2023-12-20T03:55:19;205.23;;;80.22;;
82526;SDS011;72188;41.974;21.456;2023-12-20T03:57:45;181.63;;;82.47;;
82526;SDS011;72188;41.974;21.456;2023-12-20T04:00:11;194.20;;;82.70;;
82526;SDS011;72188;41.974;21.456;2023-12-20T04:02:38;221.93;;;84.22;;
82526;SDS011;72188;41.974;21.456;2023-12-20T04:05:05;264.25;;;88.65;;
82526;SDS011;72188;41.974;21.456;2023-12-20T04:07:31;190.55;;;85.60;;
82526;SDS011;72188;41.974;21.456;2023-12-20T04:09:57;203.45;;;79.25;;
82526;SDS011;72188;41.974;21.456;2023-12-20T04:12:24;270.50;;;88.75;;
82526;SDS011;72188;41.974;21.456;2023-12-20T04:14:51;216.32;;;75.35;;
82526;SDS011;72188;41.974;21.456;2023-12-20T04:17:17;226.88;;;78.80;;
82526;SDS011;72188;41.974;21.456;2023-12-20T04:19:43;161.73;;;71.32;;
82526;SDS011;72188;41.974;21.456;2023-12-20T04:22:09;167.80;;;66.93;;
82526;SDS011;72188;41.974;21.456;2023-12-20T04:24:35;186.07;;;64.93;;
82526;SDS011;72188;41.974;21.456;2023-12-20T04:27:01;125.00;;;50.75;;
82526;SDS011;72188;41.974;21.456;2023-12-20T04:29:27;130.50;;;54.80;;
82526;SDS011;72188;41.974;21.456;2023-12-20T04:31:54;191.23;;;70.63;;
82526;SDS011;72188;41.974;21.456;2023-12-20T04:34:20;163.68;;;71.80;;
82526;SDS011;72188;41.974;21.456;2023-12-20T04:36:46;172.00;;;68.13;;
82526;SDS011;72188;41.974;21.456;2023-12-20T04:39:12;204.35;;;73.85;;
82526;SDS011;72188;41.974;21.456;2023-12-20T04:41:40;237.13;;;78.45;;
82526;SDS011;72188;41.974;21.456;2023-12-20T04:44:06;80.22;;;34.28;;
82526;SDS011;72188;41.974;21.456;2023-12-20T04:46:32;207.98;;;68.32;;
82526;SDS011;72188;41.974;21.456;2023-12-20T04:48:58;220.70;;;78.65;;
82526;SDS011;72188;41.974;21.456;2023-12-20T04:51:24;173.15;;;65.00;;
82526;SDS011;72188;41.974;21.456;2023-12-20T04:53:50;285.13;;;78.07;;
82526;SDS011;72188;41.974;21.456;2023-12-20T04:56:16;352.27;;;84.07;;
82526;SDS011;72188;41.974;21.456;2023-12-20T04:58:42;354.58;;;82.25;;
82526;SDS011;72188;41.974;21.456;2023-12-20T05:01:09;296.70;;;79.32;;
82526;SDS011;72188;41.974;21.456;2023-12-20T05:03:35;239.75;;;74.07;;
82526;SDS011;72188;41.974;21.456;2023-12-20T05:06:01;130.18;;;50.83;;
82526;SDS011;72188;41.974;21.456;2023-12-20T05:08:27;295.88;;;72.70;;
82526;SDS011;72188;41.974;21.456;2023-12-20T05:10:54;336.00;;;80.13;;
82526;SDS011;72188;41.974;21.456;2023-12-20T05:13:20;403.50;;;85.22;;
82526;SDS011;72188;41.974;21.456;2023-12-20T05:15:46;419.98;;;87.95;;
82526;SDS011;72188;41.974;21.456;2023-12-20T05:18:12;354.13;;;84.85;;
82526;SDS011;72188;41.974;21.456;2023-12-20T05:20:39;322.73;;;83.32;;
82526;SDS011;72188;41.974;21.456;2023-12-20T05:23:05;380.55;;;88.90;;
82526;SDS011;72188;41.974;21.456;2023-12-20T05:25:31;300.80;;;79.65;;
82526;SDS011;72188;41.974;21.456;2023-12-20T05:27:57;404.67;;;92.25;;
82526;SDS011;72188;41.974;21.456;2023-12-20T05:30:23;399.83;;;90.80;;
82526;SDS011;72188;41.974;21.456;2023-12-20T05:32:49;354.38;;;83.50;;
82526;SDS011;72188;41.974;21.456;2023-12-20T05:35:16;266.58;;;75.82;;
82526;SDS011;72188;41.974;21.456;2023-12-20T05:37:42;347.42;;;79.85;;
82526;SDS011;72188;41.974;21.456;2023-12-20T05:40:08;308.10;;;81.38;;
82526;SDS011;72188;41.974;21.456;2023-12-20T05:42:35;264.15;;;79.40;;
82526;SDS011;72188;41.974;21.456;2023-12-20T05:45:02;333.95;;;85.80;;
82526;SDS011;72188;41.974;21.456;2023-12-20T05:47:28;288.75;;;82.70;;
82526;SDS011;72188;41.974;21.456;2023-12-20T05:49:54;257.35;;;85.05;;
82526;SDS011;72188;41.974;21.456;2023-12-20T05:52:20;215.60;;;77.30;;
82526;SDS011;72188;41.974;21.456;2023-12-20T05:54:46;236.82;;;82.57;;
82526;SDS011;72188;41.974;21.456;2023-12-20T05:57:13;235.55;;;79.85;;
82526;SDS011;72188;41.974;21.456;2023-12-20T05:59:39;195.07;;;77.63;;
82526;SDS011;72188;41.974;21.456;2023-12-20T06:02:05;223.68;;;77.03;;
82526;SDS011;72188;41.974;21.456;2023-12-20T06:04:31;178.40;;;70.47;;
82526;SDS011;72188;41.974;21.456;2023-12-20T06:06:57;185.27;;;76.35;;
82526;SDS011;72188;41.974;21.456;2023-12-20T06:09:24;219.80;;;79.80;;
82526;SDS011;72188;41.974;21.456;2023-12-20T06:11:50;258.05;;;80.80;;
82526;SDS011;72188;41.974;21.456;2023-12-20T06:14:16;248.45;;;80.63;;
82526;SDS011;72188;41.974;21.456;2023-12-20T06:16:42;183.27;;;77.13;;
82526;SDS011;72188;41.974;21.456;2023-12-20T06:19:10;187.85;;;83.18;;
82526;SDS011;72188;41.974;21.456;2023-12-20T06:21:36;222.07;;;87.95;;
82526;SDS011;72188;41.974;21.456;2023-12-20T06:24:02;208.57;;;83.53;;
82526;SDS011;72188;41.974;21.456;2023-12-20T06:26:28;172.90;;;78.05;;
82526;SDS011;72188;41.974;21.456;2023-12-20T06:28:54;192.05;;;84.30;;
82526;SDS011;72188;41.974;21.456;2023-12-20T06:31:20;208.32;;;78.15;;
82526;SDS011;72188;41.974;21.456;2023-12-20T06:33:46;269.95;;;96.20;;
82526;SDS011;72188;41.974;21.456;2023-12-20T06:38:40;226.98;;;82.65;;
82526;SDS011;72188;41.974;21.456;2023-12-20T06:41:07;167.43;;;66.38;;
82526;SDS011;72188;41.974;21.456;2023-12-20T06:43:33;249.73;;;85.05;;
82526;SDS011;72188;41.974;21.456;2023-12-20T06:46:02;150.43;;;57.90;;
82526;SDS011;72188;41.974;21.456;2023-12-20T06:48:28;190.65;;;65.78;;
82526;SDS011;72188;41.974;21.456;2023-12-20T06:50:54;180.27;;;64.45;;
82526;SDS011;72188;41.974;21.456;2023-12-20T06:53:20;88.25;;;38.92;;
82526;SDS011;72188;41.974;21.456;2023-12-20T06:55:46;210.38;;;69.65;;
82526;SDS011;72188;41.974;21.456;2023-12-20T06:58:12;233.57;;;79.05;;
82526;SDS011;72188;41.974;21.456;2023-12-20T07:00:38;163.68;;;62.78;;
82526;SDS011;72188;41.974;21.456;2023-12-20T07:03:04;233.68;;;88.25;;
82526;SDS011;72188;41.974;21.456;2023-12-20T07:05:31;218.82;;;82.13;;
82526;SDS011;72188;41.974;21.456;2023-12-20T07:07:58;199.40;;;66.70;;
82526;SDS011;72188;41.974;21.456;2023-12-20T07:10:24;159.90;;;61.28;;
82526;SDS011;72188;41.974;21.456;2023-12-20T07:12:50;165.25;;;60.03;;
82526;SDS011;72188;41.974;21.456;2023-12-20T07:15:17;163.05;;;63.13;;
82526;SDS011;72188;41.974;21.456;2023-12-20T07:17:43;255.23;;;76.55;;
82526;SDS011;72188;41.974;21.456;2023-12-20T07:20:09;215.05;;;67.45;;
82526;SDS011;72188;41.974;21.456;2023-12-20T07:22:36;200.70;;;69.78;;
82526;SDS011;72188;41.974;21.456;2023-12-20T07:25:02;165.27;;;60.80;;
82526;SDS011;72188;41.974;21.456;2023-12-20T07:27:28;206.60;;;69.57;;
82526;SDS011;72188;41.974;21.456;2023-12-20T07:29:55;192.50;;;56.17;;
82526;SDS011;72188;41.974;21.456;2023-12-20T07:32:21;323.60;;;79.13;;
82526;SDS011;72188;41.974;21.456;2023-12-20T07:34:47;303.55;;;76.38;;
82526;SDS011;72188;41.974;21.456;2023-12-20T07:37:13;250.07;;;73.72;;
82526;SDS011;72188;41.974;21.456;2023-12-20T07:39:39;314.40;;;77.93;;
82526;SDS011;72188;41.974;21.456;2023-12-20T07:42:06;221.77;;;67.57;;
82526;SDS011;72188;41.974;21.456;2023-12-20T07:44:32;332.95;;;80.05;;
82526;SDS011;72188;41.974;21.456;2023-12-20T07:46:58;145.98;;;54.05;;
82526;SDS011;72188;41.974;21.456;2023-12-20T07:49:24;226.90;;;74.22;;
82526;SDS011;72188;41.974;21.456;2023-12-20T07:51:50;293.55;;;78.38;;
82526;SDS011;72188;41.974;21.456;2023-12-20T07:54:17;248.70;;;78.57;;
82526;SDS011;72188;41.974;21.456;2023-12-20T07:56:43;299.48;;;79.97;;
82526;SDS011;72188;41.974;21.456;2023-12-20T07:59:09;287.77;;;84.15;;
82526;SDS011;72188;41.974;21.456;2023-12-20T08:01:35;282.02;;;78.05;;
82526;SDS011;72188;41.974;21.456;2023-12-20T08:04:01;328.27;;;80.95;;
82526;SDS011;72188;41.974;21.456;2023-12-20T08:06:27;329.92;;;82.97;;
82526;SDS011;72188;41.974;21.456;2023-12-20T08:08:53;344.58;;;87.18;;
82526;SDS011;72188;41.974;21.456;2023-12-20T08:11:19;303.35;;;78.30;;
82526;SDS011;72188;41.974;21.456;2023-12-20T08:13:45;268.75;;;78.53;;
82526;SDS011;72188;41.974;21.456;2023-12-20T08:16:11;233.40;;;75.85;;
82526;SDS011;72188;41.974;21.456;2023-12-20T08:18:38;335.70;;;86.22;;
82526;SDS011;72188;41.974;21.456;2023-12-20T08:21:04;245.65;;;67.22;;
82526;SDS011;72188;41.974;21.456;2023-12-20T08:23:33;377.05;;;85.45;;
82526;SDS011;72188;41.974;21.456;2023-12-20T08:26:03;598.42;;;117.95;;
82526;SDS011;72188;41.974;21.456;2023-12-20T08:28:29;238.93;;;72.18;;
82526;SDS011;72188;41.974;21.456;2023-12-20T08:30:56;198.52;;;68.90;;
82526;SDS011;72188;41.974;21.456;2023-12-20T08:33:22;201.05;;;63.80;;
82526;SDS011;72188;41.974;21.456;2023-12-20T08:35:48;226.27;;;74.45;;
82526;SDS011;72188;41.974;21.456;2023-12-20T08:38:14;413.73;;;97.00;;
82526;SDS011;72188;41.974;21.456;2023-12-20T08:40:41;380.90;;;92.95;;
82526;SDS011;72188;41.974;21.456;2023-12-20T08:43:07;382.02;;;91.13;;
82526;SDS011;72188;41.974;21.456;2023-12-20T08:45:33;368.40;;;90.00;;
82526;SDS011;72188;41.974;21.456;2023-12-20T08:48:00;329.45;;;82.50;;
82526;SDS011;72188;41.974;21.456;2023-12-20T08:50:26;351.38;;;83.45;;
82526;SDS011;72188;41.974;21.456;2023-12-20T08:52:52;280.05;;;79.13;;
82526;SDS011;72188;41.974;21.456;2023-12-20T08:55:18;257.58;;;81.32;;
82526;SDS011;72188;41.974;21.456;2023-12-20T08:57:45;307.10;;;83.97;;
82526;SDS011;72188;41.974;21.456;2023-12-20T09:00:11;270.52;;;77.22;;
82526;SDS011;72188;41.974;21.456;2023-12-20T09:02:37;254.20;;;79.60;;
82526;SDS011;72188;41.974;21.456;2023-12-20T09:05:04;463.48;;;97.07;;
82526;SDS011;72188;41.974;21.456;2023-12-20T09:07:30;366.25;;;86.10;;
82526;SDS011;72188;41.974;21.456;2023-12-20T09:09:57;308.60;;;85.40;;
82526;SDS011;72188;41.974;21.456;2023-12-20T09:12:23;203.77;;;77.45;;
82526;SDS011;72188;41.974;21.456;2023-12-20T09:14:50;254.90;;;82.38;;
82526;SDS011;72188;41.974;21.456;2023-12-20T09:17:17;139.40;;;47.72;;
82526;SDS011;72188;41.974;21.456;2023-12-20T09:19:43;237.15;;;73.50;;
82526;SDS011;72188;41.974;21.456;2023-12-20T09:22:09;154.50;;;53.67;;
82526;SDS011;72188;41.974;21.456;2023-12-20T09:24:36;384.00;;;91.05;;
82526;SDS011;72188;41.974;21.456;2023-12-20T09:27:02;346.27;;;84.43;;
82526;SDS011;72188;41.974;21.456;2023-12-20T09:29:28;205.20;;;67.15;;
82526;SDS011;72188;41.974;21.456;2023-12-20T09:31:54;217.30;;;77.80;;
82526;SDS011;72188;41.974;21.456;2023-12-20T09:34:22;216.77;;;82.55;;
82526;SDS011;72188;41.974;21.456;2023-12-20T09:36:49;426.92;;;104.30;;
82526;SDS011;72188;41.974;21.456;2023-12-20T09:39:16;276.27;;;91.63;;
82526;SDS011;72188;41.974;21.456;2023-12-20T09:41:47;292.08;;;83.88;;
82526;SDS011;72188;41.974;21.456;2023-12-20T09:44:15;222.57;;;79.97;;
82526;SDS011;72188;41.974;21.456;2023-12-20T09:46:45;239.25;;;83.40;;
82526;SDS011;72188;41.974;21.456;2023-12-20T09:49:12;238.95;;;85.00;;
82526;SDS011;72188;41.974;21.456;2023-12-20T09:51:39;223.73;;;85.22;;
82526;SDS011;72188;41.974;21.456;2023-12-20T09:54:05;295.38;;;90.68;;
82526;SDS011;72188;41.974;21.456;2023-12-20T09:56:31;178.05;;;65.75;;
82526;SDS011;72188;41.974;21.456;2023-12-20T09:58:57;290.00;;;91.53;;
82526;SDS011;72188;41.974;21.456;2023-12-20T10:01:23;304.90;;;91.90;;
82526;SDS011;72188;41.974;21.456;2023-12-20T10:03:54;286.48;;;94.05;;
82526;SDS011;72188;41.974;21.456;2023-12-20T10:06:20;251.05;;;85.30;;
82526;SDS011;72188;41.974;21.456;2023-12-20T10:08:46;220.77;;;76.93;;
82526;SDS011;72188;41.974;21.456;2023-12-20T10:11:13;235.90;;;81.53;;
82526;SDS011;72188;41.974;21.456;2023-12-20T10:13:40;176.50;;;69.70;;
82526;SDS011;72188;41.974;21.456;2023-12-20T10:16:06;198.55;;;73.10;;
82526;SDS011;72188;41.974;21.456;2023-12-20T10:18:32;190.63;;;75.63;;
82526;SDS011;72188;41.974;21.456;2023-12-20T10:20:59;197.52;;;79.60;;
82526;SDS011;72188;41.974;21.456;2023-12-20T10:23:26;201.73;;;80.85;;
82526;SDS011;72188;41.974;21.456;2023-12-20T10:25:55;216.00;;;85.07;;
82526;SDS011;72188;41.974;21.456;2023-12-20T10:28:22;197.48;;;80.00;;
82526;SDS011;72188;41.974;21.456;2023-12-20T10:30:52;239.63;;;87.90;;
82526;SDS011;72188;41.974;21.456;2023-12-20T10:33:25;201.77;;;80.60;;
82526;SDS011;72188;41.974;21.456;2023-12-20T10:35:52;184.13;;;73.60;;
82526;SDS011;72188;41.974;21.456;2023-12-20T10:38:19;206.35;;;79.72;;
82526;SDS011;72188;41.974;21.456;2023-12-20T10:40:45;178.50;;;77.50;;
82526;SDS011;72188;41.974;21.456;2023-12-20T10:43:12;193.63;;;78.25;;
82526;SDS011;72188;41.974;21.456;2023-12-20T10:45:42;196.55;;;75.82;;
82526;SDS011;72188;41.974;21.456;2023-12-20T10:48:11;201.10;;;80.65;;
82526;SDS011;72188;41.974;21.456;2023-12-20T10:50:37;202.90;;;83.10;;
82526;SDS011;72188;41.974;21.456;2023-12-20T10:53:03;199.00;;;80.72;;
82526;SDS011;72188;41.974;21.456;2023-12-20T10:55:29;181.77;;;79.55;;
82526;SDS011;72188;41.974;21.456;2023-12-20T10:58:02;213.05;;;81.30;;
82526;SDS011;72188;41.974;21.456;2023-12-20T11:00:31;194.00;;;81.22;;
82526;SDS011;72188;41.974;21.456;2023-12-20T11:02:59;210.10;;;83.65;;
82526;SDS011;72188;41.974;21.456;2023-12-20T11:08:15;199.60;;;83.05;;
82526;SDS011;72188;41.974;21.456;2023-12-20T11:10:45;195.35;;;82.28;;
82526;SDS011;72188;41.974;21.456;2023-12-20T11:13:23;186.32;;;83.47;;
82526;SDS011;72188;41.974;21.456;2023-12-20T11:15:49;145.48;;;63.65;;
82526;SDS011;72188;41.974;21.456;2023-12-20T11:18:15;208.10;;;82.95;;
82526;SDS011;72188;41.974;21.456;2023-12-20T11:20:41;169.35;;;69.10;;
82526;SDS011;72188;41.974;21.456;2023-12-20T11:23:08;171.18;;;71.75;;
82526;SDS011;72188;41.974;21.456;2023-12-20T11:25:47;212.98;;;86.85;;
82526;SDS011;72188;41.974;21.456;2023-12-20T11:28:14;197.65;;;82.78;;
82526;SDS011;72188;41.974;21.456;2023-12-20T11:30:40;213.95;;;84.90;;
82526;SDS011;72188;41.974;21.456;2023-12-20T11:33:07;228.63;;;90.38;;
82526;SDS011;72188;41.974;21.456;2023-12-20T11:35:33;222.00;;;88.40;;
82526;SDS011;72188;41.974;21.456;2023-12-20T11:38:01;229.88;;;90.00;;
82526;SDS011;72188;41.974;21.456;2023-12-20T11:40:27;248.90;;;94.85;;
82526;SDS011;72188;41.974;21.456;2023-12-20T11:42:54;237.60;;;94.13;;
82526;SDS011;72188;41.974;21.456;2023-12-20T11:45:21;234.23;;;94.72;;
82526;SDS011;72188;41.974;21.456;2023-12-20T11:47:48;238.23;;;91.95;;
82526;SDS011;72188;41.974;21.456;2023-12-20T11:50:21;227.27;;;90.18;;
82526;SDS011;72188;41.974;21.456;2023-12-20T11:52:48;236.27;;;91.30;;
82526;SDS011;72188;41.974;21.456;2023-12-20T11:55:14;205.82;;;83.10;;
82526;SDS011;72188;41.974;21.456;2023-12-20T11:57:40;229.77;;;95.70;;
82526;SDS011;72188;41.974;21.456;2023-12-20T12:00:06;223.10;;;97.97;;
82526;SDS011;72188;41.974;21.456;2023-12-20T12:02:33;223.40;;;99.72;;
82526;SDS011;72188;41.974;21.456;2023-12-20T12:04:59;224.00;;;99.47;;
82526;SDS011;72188;41.974;21.456;2023-12-20T12:07:25;235.55;;;98.90;;
82526;SDS011;72188;41.974;21.456;2023-12-20T12:09:51;242.02;;;97.30;;
82526;SDS011;72188;41.974;21.456;2023-12-20T12:12:18;134.35;;;61.08;;
82526;SDS011;72188;41.974;21.456;2023-12-20T12:14:45;217.18;;;89.00;;
82526;SDS011;72188;41.974;21.456;2023-12-20T12:17:14;174.68;;;79.20;;
82526;SDS011;72188;41.974;21.456;2023-12-20T12:19:41;133.93;;;59.40;;
82526;SDS011;72188;41.974;21.456;2023-12-20T12:22:08;187.43;;;81.00;;
82526;SDS011;72188;41.974;21.456;2023-12-20T12:24:38;200.23;;;83.43;;
82526;SDS011;72188;41.974;21.456;2023-12-20T12:27:05;200.57;;;85.93;;
82526;SDS011;72188;41.974;21.456;2023-12-20T12:29:32;159.68;;;69.95;;
82526;SDS011;72188;41.974;21.456;2023-12-20T12:31:59;180.07;;;74.00;;
82526;SDS011;72188;41.974;21.456;2023-12-20T12:34:27;167.77;;;74.40;;
82526;SDS011;72188;41.974;21.456;2023-12-20T12:36:53;175.07;;;74.75;;
82526;SDS011;72188;41.974;21.456;2023-12-20T12:39:19;163.00;;;69.93;;
82526;SDS011;72188;41.974;21.456;2023-12-20T12:41:46;184.48;;;78.40;;
82526;SDS011;72188;41.974;21.456;2023-12-20T12:44:12;180.00;;;84.68;;
82526;SDS011;72188;41.974;21.456;2023-12-20T12:46:38;196.88;;;85.03;;
82526;SDS011;72188;41.974;21.456;2023-12-20T12:49:04;196.77;;;85.70;;
82526;SDS011;72188;41.974;21.456;2023-12-20T12:51:30;180.90;;;80.70;;
82526;SDS011;72188;41.974;21.456;2023-12-20T12:53:57;188.63;;;79.05;;
82526;SDS011;72188;41.974;21.456;2023-12-20T12:56:23;194.90;;;84.18;;
82526;SDS011;72188;41.974;21.456;2023-12-20T12:58:49;189.02;;;81.90;;
82526;SDS011;72188;41.974;21.456;2023-12-20T13:01:15;180.98;;;82.55;;
82526;SDS011;72188;41.974;21.456;2023-12-20T13:03:41;174.70;;;81.78;;
82526;SDS011;72188;41.974;21.456;2023-12-20T13:06:07;199.40;;;85.28;;
82526;SDS011;72188;41.974;21.456;2023-12-20T13:08:34;196.18;;;82.97;;
82526;SDS011;72188;41.974;21.456;2023-12-20T13:11:00;205.85;;;88.35;;
82526;SDS011;72188;41.974;21.456;2023-12-20T13:13:29;194.48;;;86.55;;
82526;SDS011;72188;41.974;21.456;2023-12-20T13:15:55;200.00;;;88.38;;
82526;SDS011;72188;41.974;21.456;2023-12-20T13:18:22;213.70;;;95.53;;
82526;SDS011;72188;41.974;21.456;2023-12-20T13:20:48;200.25;;;90.93;;
82526;SDS011;72188;41.974;21.456;2023-12-20T13:23:14;181.73;;;78.40;;
82526;SDS011;72188;41.974;21.456;2023-12-20T13:25:41;210.35;;;89.35;;
82526;SDS011;72188;41.974;21.456;2023-12-20T13:28:07;218.68;;;96.22;;
82526;SDS011;72188;41.974;21.456;2023-12-20T13:30:33;194.25;;;92.57;;
82526;SDS011;72188;41.974;21.456;2023-12-20T13:33:00;193.63;;;83.70;;
82526;SDS011;72188;41.974;21.456;2023-12-20T13:35:26;193.35;;;86.63;;
82526;SDS011;72188;41.974;21.456;2023-12-20T13:37:52;189.77;;;84.40;;
82526;SDS011;72188;41.974;21.456;2023-12-20T13:40:18;215.05;;;92.53;;
82526;SDS011;72188;41.974;21.456;2023-12-20T13:42:45;199.85;;;93.15;;
82526;SDS011;72188;41.974;21.456;2023-12-20T13:45:11;191.68;;;87.88;;
82526;SDS011;72188;41.974;21.456;2023-12-20T13:47:37;194.02;;;87.55;;
82526;SDS011;72188;41.974;21.456;2023-12-20T13:50:03;201.35;;;90.55;;
82526;SDS011;72188;41.974;21.456;2023-12-20T13:52:30;194.38;;;91.50;;
82526;SDS011;72188;41.974;21.456;2023-12-20T13:54:56;179.60;;;86.25;;
82526;SDS011;72188;41.974;21.456;2023-12-20T13:57:22;212.50;;;93.05;;